createdAt,value
2019-04-04T00:00:55.617Z,7.30
2019-04-04T00:03:27.256Z,7.20
2019-04-04T00:05:59.099Z,7.10
2019-04-04T00:08:31.580Z,7.10
2019-04-04T00:11:05.775Z,7.00
2019-04-04T00:13:36.953Z,7.00
2019-04-04T00:16:07.976Z,6.90
2019-04-04T00:18:39.862Z,6.90
2019-04-04T00:21:11.906Z,6.90
2019-04-04T00:23:43.652Z,6.90
2019-04-04T00:26:16.126Z,6.80
2019-04-04T00:28:47.908Z,6.80
2019-04-04T00:31:19.598Z,6.90
2019-04-04T00:33:50.975Z,6.80
2019-04-04T00:36:23.158Z,6.80
2019-04-04T00:38:55.219Z,6.80
2019-04-04T00:41:27.128Z,6.80
2019-04-04T00:43:59.099Z,6.70
2019-04-04T00:46:30.899Z,6.70
2019-04-04T00:49:04.829Z,6.70
2019-04-04T00:51:38.687Z,6.70
2019-04-04T00:54:10.079Z,6.70
2019-04-04T00:56:41.690Z,6.60
2019-04-04T00:59:13.036Z,6.60
2019-04-04T01:01:44.580Z,6.60
2019-04-04T01:04:16.566Z,6.50
2019-04-04T01:06:48.337Z,6.50
2019-04-04T01:09:19.593Z,6.40
2019-04-04T01:11:51.874Z,6.50
2019-04-04T01:14:23.473Z,6.50
2019-04-04T01:16:55.788Z,6.50
2019-04-04T01:19:28.585Z,6.50
2019-04-04T01:22:00.243Z,6.40
2019-04-04T01:24:31.951Z,6.40
2019-04-04T01:27:04.188Z,6.40
2019-04-04T01:29:37.143Z,6.40
2019-04-04T01:32:08.704Z,6.40
2019-04-04T01:34:40.047Z,6.40
2019-04-04T01:37:12.230Z,6.40
2019-04-04T01:39:43.906Z,6.30
2019-04-04T01:42:16.071Z,6.30
2019-04-04T01:44:47.894Z,6.40
2019-04-04T01:47:19.786Z,6.40
2019-04-04T01:49:51.878Z,6.30
2019-04-04T01:52:27.838Z,6.30
2019-04-04T01:54:57.681Z,6.30
2019-04-04T01:57:29.257Z,6.30
2019-04-04T02:00:01.547Z,6.20
2019-04-04T02:02:33.100Z,6.20
2019-04-04T02:05:04.740Z,6.20
2019-04-04T02:07:36.278Z,6.20
2019-04-04T02:10:07.954Z,6.20
2019-04-04T02:12:40.105Z,6.30
2019-04-04T02:15:14.353Z,6.30
2019-04-04T02:17:46.120Z,6.20
2019-04-04T02:20:18.063Z,6.20
2019-04-04T02:22:49.574Z,6.20
2019-04-04T02:25:22.611Z,6.20
2019-04-04T02:27:53.873Z,6.20
2019-04-04T02:30:25.490Z,6.30
2019-04-04T02:33:00.413Z,6.30
2019-04-04T02:35:30.962Z,6.30
2019-04-04T02:38:02.309Z,6.20
2019-04-04T02:40:33.837Z,6.20
2019-04-04T02:43:05.197Z,6.10
2019-04-04T02:45:38.841Z,6.20
2019-04-04T02:48:09.777Z,6.20
2019-04-04T02:50:41.143Z,6.20
2019-04-04T02:53:13.549Z,6.20
2019-04-04T02:55:45.391Z,6.10
2019-04-04T02:58:17.203Z,6.10
2019-04-04T03:00:48.284Z,6.10
2019-04-04T03:03:19.266Z,6.10
2019-04-04T03:05:51.983Z,6.00
2019-04-04T03:08:23.702Z,6.00
2019-04-04T03:10:55.575Z,6.00
2019-04-04T03:13:31.136Z,6.10
2019-04-04T03:16:00.763Z,6.10
2019-04-04T03:18:34.822Z,6.10
2019-04-04T03:21:06.170Z,6.10
2019-04-04T03:23:37.849Z,6.10
2019-04-04T03:26:09.424Z,6.10
2019-04-04T03:28:41.367Z,6.10
2019-04-04T03:31:13.309Z,6.10
2019-04-04T03:33:45.408Z,6.20
2019-04-04T03:36:17.279Z,6.20
2019-04-04T03:38:49.321Z,6.20
2019-04-04T03:41:21.818Z,6.20
2019-04-04T03:43:53.191Z,6.20
2019-04-04T03:46:25.240Z,6.10
2019-04-04T03:48:57.161Z,6.10
2019-04-04T03:51:29.096Z,6.10
2019-04-04T03:54:02.923Z,6.10
2019-04-04T03:56:39.174Z,6.10
2019-04-04T03:59:07.562Z,6.10
2019-04-04T04:01:38.611Z,6.00
2019-04-04T04:04:10.152Z,6.10
2019-04-04T04:06:42.370Z,6.00
2019-04-04T04:09:16.077Z,6.00
2019-04-04T04:11:47.350Z,6.00
2019-04-04T04:14:21.672Z,5.90
2019-04-04T04:16:52.562Z,5.90
2019-04-04T04:19:24.748Z,5.90
2019-04-04T04:21:57.328Z,5.90
2019-04-04T04:24:30.417Z,5.90
2019-04-04T04:27:02.160Z,5.90
2019-04-04T04:29:34.987Z,6.00
2019-04-04T04:32:07.257Z,6.00
2019-04-04T04:34:38.870Z,5.90
2019-04-04T04:37:10.652Z,5.90
2019-04-04T04:39:42.011Z,5.90
2019-04-04T04:42:13.867Z,6.00
2019-04-04T04:44:46.105Z,6.00
2019-04-04T04:47:17.771Z,6.00
2019-04-04T04:49:48.934Z,6.00
2019-04-04T04:52:20.571Z,6.10
2019-04-04T04:54:52.333Z,6.10
2019-04-04T04:57:29.936Z,6.10
2019-04-04T04:59:58.018Z,6.00
2019-04-04T05:02:30.102Z,6.10
2019-04-04T05:05:01.945Z,6.10
2019-04-04T05:07:33.890Z,6.20
2019-04-04T05:10:06.253Z,6.30
2019-04-04T05:12:37.910Z,6.50
2019-04-04T05:15:10.015Z,6.50
2019-04-04T05:17:42.048Z,6.50
2019-04-04T05:20:14.208Z,6.60
2019-04-04T05:22:45.967Z,6.70
2019-04-04T05:25:17.713Z,6.70
2019-04-04T05:27:48.706Z,6.70
2019-04-04T05:30:21.450Z,6.80
2019-04-04T05:33:00.248Z,6.80
2019-04-04T05:35:33.478Z,6.80
2019-04-04T05:38:07.731Z,6.80
2019-04-04T05:40:38.885Z,6.90
2019-04-04T05:43:10.995Z,7.00
2019-04-04T05:45:44.957Z,7.00
2019-04-04T05:48:16.116Z,7.10
2019-04-04T05:50:47.446Z,7.10
2019-04-04T05:53:21.398Z,7.20
2019-04-04T05:55:52.208Z,7.20
2019-04-04T05:58:23.204Z,7.30
2019-04-04T06:00:57.727Z,7.30
2019-04-04T06:03:28.831Z,7.30
2019-04-04T06:06:01.403Z,7.50
2019-04-04T06:08:33.594Z,7.60
2019-04-04T06:11:05.747Z,7.60
2019-04-04T06:13:37.719Z,7.70
2019-04-04T06:16:09.172Z,7.80
2019-04-04T06:18:42.856Z,7.80
2019-04-04T06:21:13.995Z,7.90
2019-04-04T06:23:45.860Z,8.00
2019-04-04T06:26:17.538Z,7.90
2019-04-04T06:28:49.881Z,8.00
2019-04-04T06:31:21.751Z,8.00
2019-04-04T06:33:54.525Z,8.00
2019-04-04T06:36:25.826Z,8.00
2019-04-04T06:38:57.082Z,8.00
2019-04-04T06:41:32.017Z,8.00
2019-04-04T06:44:02.550Z,8.00
2019-04-04T06:46:34.125Z,8.10
2019-04-04T06:49:06.712Z,8.30
2019-04-04T06:51:38.054Z,8.50
2019-04-04T06:54:09.402Z,8.90
2019-04-04T06:56:41.050Z,9.30
2019-04-04T06:59:12.874Z,9.80
2019-04-04T07:01:44.662Z,10.30
2019-04-04T07:04:17.360Z,11.00
2019-04-04T07:06:49.300Z,11.80
2019-04-04T07:09:22.092Z,12.60
2019-04-04T07:11:53.657Z,13.30
2019-04-04T07:14:25.279Z,13.90
2019-04-04T07:16:57.154Z,14.10
2019-04-04T07:19:29.280Z,14.50
2019-04-04T07:22:01.109Z,15.10
2019-04-04T07:24:33.475Z,15.90
2019-04-04T07:27:04.948Z,16.50
2019-04-04T07:29:36.379Z,16.70
2019-04-04T07:32:09.392Z,17.20
2019-04-04T07:34:41.130Z,17.40
2019-04-04T07:37:12.351Z,17.50
2019-04-04T07:39:43.503Z,17.40
2019-04-04T07:42:16.249Z,17.90
2019-04-04T07:44:48.074Z,17.60
2019-04-04T07:47:19.433Z,17.60
2019-04-04T07:49:50.712Z,18.20
2019-04-04T07:52:22.372Z,18.40
2019-04-04T07:54:54.280Z,18.40
2019-04-04T07:57:26.410Z,18.20
2019-04-04T07:59:58.090Z,18.10
2019-04-04T08:02:30.086Z,17.90
2019-04-04T08:05:01.382Z,18.10
2019-04-04T08:07:32.983Z,18.20
2019-04-04T08:10:04.701Z,18.20
2019-04-04T08:12:36.319Z,18.10
2019-04-04T08:15:09.302Z,18.20
2019-04-04T08:17:41.287Z,18.20
2019-04-04T08:20:13.755Z,18.10
2019-04-04T08:22:45.532Z,18.00
2019-04-04T08:25:17.272Z,18.30
2019-04-04T08:27:48.253Z,18.20
2019-04-04T08:30:19.988Z,18.30
2019-04-04T08:32:52.204Z,18.40
2019-04-04T08:35:23.780Z,18.10
2019-04-04T08:37:55.722Z,17.40
2019-04-04T08:40:26.720Z,16.50
2019-04-04T08:42:58.474Z,15.50
2019-04-04T08:45:30.633Z,14.80
2019-04-04T08:48:02.259Z,14.60
2019-04-04T08:50:34.047Z,14.40
2019-04-04T08:53:05.062Z,14.20
2019-04-04T08:55:36.946Z,14.00
2019-04-04T08:58:10.138Z,13.80
2019-04-04T09:00:41.705Z,13.60
2019-04-04T09:03:13.338Z,13.50
2019-04-04T09:05:44.685Z,13.60
2019-04-04T09:08:15.962Z,13.50
2019-04-04T09:10:47.341Z,13.00
2019-04-04T09:13:18.952Z,12.40
2019-04-04T09:15:50.687Z,12.30
2019-04-04T09:18:22.027Z,12.40
2019-04-04T09:20:53.296Z,12.40
2019-04-04T09:23:24.400Z,12.30
2019-04-04T09:26:05.459Z,12.40
2019-04-04T09:28:29.142Z,12.50
2019-04-04T09:31:02.246Z,12.50
2019-04-04T09:33:34.558Z,12.30
2019-04-04T09:36:06.491Z,12.20
2019-04-04T09:38:39.168Z,12.40
2019-04-04T09:41:11.209Z,12.40
2019-04-04T09:43:42.206Z,12.40
2019-04-04T09:46:14.107Z,12.50
2019-04-04T09:48:45.789Z,12.70
2019-04-04T09:51:17.561Z,12.70
2019-04-04T09:53:53.167Z,12.70
2019-04-04T09:56:23.145Z,12.50
2019-04-04T09:58:55.219Z,12.40
2019-04-04T10:01:26.706Z,12.40
2019-04-04T10:03:58.380Z,12.40
2019-04-04T10:06:30.303Z,12.30
2019-04-04T10:09:14.777Z,12.20
2019-04-04T10:11:35.087Z,12.10
2019-04-04T10:14:06.431Z,12.10
2019-04-04T10:16:38.646Z,12.20
2019-04-04T10:19:10.202Z,12.00
2019-04-04T10:21:41.833Z,11.90
2019-04-04T10:24:13.711Z,12.00
2019-04-04T10:26:45.405Z,12.00
2019-04-04T10:29:17.203Z,12.20
2019-04-04T10:31:49.147Z,12.40
2019-04-04T10:34:20.794Z,12.40
2019-04-04T10:36:52.165Z,12.70
2019-04-04T10:39:29.377Z,12.80
2019-04-04T10:41:56.892Z,12.80
2019-04-04T10:44:28.822Z,12.80
2019-04-04T10:47:00.484Z,13.00
2019-04-04T10:49:32.882Z,13.20
2019-04-04T10:52:04.083Z,13.30
2019-04-04T10:54:35.366Z,13.30
2019-04-04T10:57:06.713Z,13.20
2019-04-04T10:59:38.172Z,13.10
2019-04-04T11:02:09.491Z,12.80
2019-04-04T11:04:41.026Z,12.80
2019-04-04T11:07:12.773Z,12.90
2019-04-04T11:09:44.032Z,13.00
2019-04-04T11:12:16.864Z,13.10
2019-04-04T11:14:48.711Z,13.10
2019-04-04T11:17:20.140Z,13.10
2019-04-04T11:19:52.015Z,12.90
2019-04-04T11:22:24.786Z,12.80
2019-04-04T11:24:56.162Z,12.80
2019-04-04T11:27:28.240Z,12.80
2019-04-04T11:30:00.516Z,12.90
2019-04-04T11:32:32.744Z,13.00
2019-04-04T11:35:05.644Z,13.00
2019-04-04T11:37:37.358Z,13.20
2019-04-04T11:40:09.579Z,13.30
2019-04-04T11:42:41.075Z,13.30
2019-04-04T11:45:12.677Z,13.30
2019-04-04T11:47:45.016Z,13.40
2019-04-04T11:50:16.911Z,13.50
2019-04-04T11:52:48.531Z,13.60
2019-04-04T11:55:19.896Z,13.40
2019-04-04T11:57:52.071Z,13.40
2019-04-04T12:00:30.912Z,13.40
2019-04-04T12:03:02.336Z,13.60
2019-04-04T12:05:33.687Z,13.40
2019-04-04T12:08:05.206Z,13.50
2019-04-04T12:10:36.332Z,13.40
2019-04-04T12:13:07.390Z,13.50
2019-04-04T12:15:39.216Z,13.80
2019-04-04T12:18:10.796Z,14.00
2019-04-04T12:20:43.526Z,14.20
2019-04-04T12:23:15.026Z,14.30
2019-04-04T12:25:46.984Z,14.40
2019-04-04T12:28:18.579Z,14.30
2019-04-04T12:30:49.915Z,14.20
2019-04-04T12:33:21.781Z,14.00
2019-04-04T12:35:53.644Z,13.80
2019-04-04T12:38:24.984Z,13.70
2019-04-04T12:40:56.289Z,13.70
2019-04-04T12:43:27.828Z,13.60
2019-04-04T12:46:00.387Z,13.60
2019-04-04T12:48:32.259Z,13.60
2019-04-04T12:51:03.359Z,13.50
2019-04-04T12:53:35.331Z,13.40
2019-04-04T12:56:07.080Z,13.40
2019-04-04T12:58:39.132Z,13.20
2019-04-04T13:01:10.786Z,13.20
2019-04-04T13:03:42.358Z,13.10
2019-04-04T13:06:14.100Z,13.10
2019-04-04T13:08:46.813Z,13.10
2019-04-04T13:11:18.551Z,13.00
2019-04-04T13:13:49.918Z,12.90
2019-04-04T13:16:21.265Z,12.80
2019-04-04T13:18:52.581Z,12.80
2019-04-04T13:21:23.915Z,12.80
2019-04-04T13:23:55.596Z,12.60
2019-04-04T13:26:27.452Z,12.50
2019-04-04T13:28:58.799Z,12.40
2019-04-04T13:31:30.453Z,12.30
2019-04-04T13:34:02.292Z,12.30
2019-04-04T13:36:36.586Z,12.60
2019-04-04T13:39:10.535Z,12.60
2019-04-04T13:41:42.502Z,12.60
2019-04-04T13:44:13.912Z,12.40
2019-04-04T13:46:45.828Z,12.00
2019-04-04T13:49:17.113Z,11.50
2019-04-04T13:51:48.498Z,11.10
2019-04-04T13:54:20.463Z,10.90
2019-04-04T13:56:52.229Z,11.00
2019-04-04T13:59:23.848Z,10.90
2019-04-04T14:01:55.765Z,11.10
2019-04-04T14:04:27.352Z,11.40
2019-04-04T14:07:02.444Z,11.80
2019-04-04T14:09:32.755Z,12.20
2019-04-04T14:12:04.162Z,12.40
2019-04-04T14:14:36.059Z,12.50
2019-04-04T14:17:08.283Z,12.50
2019-04-04T14:19:39.754Z,12.20
2019-04-04T14:22:11.090Z,11.90
2019-04-04T14:24:42.782Z,12.10
2019-04-04T14:27:14.198Z,12.30
2019-04-04T14:29:46.156Z,12.40
2019-04-04T14:32:17.210Z,12.40
2019-04-04T14:34:48.291Z,12.30
2019-04-04T14:37:19.646Z,12.30
2019-04-04T14:39:51.863Z,12.30
2019-04-04T14:42:23.452Z,12.50
2019-04-04T14:44:55.434Z,12.50
2019-04-04T14:47:28.169Z,12.80
2019-04-04T14:50:00.453Z,12.70
2019-04-04T14:52:31.957Z,12.80
2019-04-04T14:55:03.254Z,12.70
2019-04-04T14:57:34.904Z,12.70
2019-04-04T15:00:09.208Z,12.60
2019-04-04T15:02:40.766Z,12.60
2019-04-04T15:05:13.260Z,12.60
2019-04-04T15:07:45.118Z,12.60
2019-04-04T15:10:16.459Z,12.60
2019-04-04T15:12:48.343Z,12.70
2019-04-04T15:15:20.046Z,12.90
2019-04-04T15:17:51.341Z,12.90
2019-04-04T15:20:23.036Z,13.00
2019-04-04T15:22:54.166Z,12.90
2019-04-04T15:25:25.240Z,12.80
2019-04-04T15:27:56.568Z,12.60
2019-04-04T15:30:28.742Z,12.40
2019-04-04T15:33:02.562Z,12.10
2019-04-04T15:35:33.474Z,11.80
2019-04-04T15:38:05.695Z,11.60
2019-04-04T15:40:37.337Z,11.40
2019-04-04T15:43:09.374Z,11.30
2019-04-04T15:45:41.379Z,11.30
2019-04-04T15:48:12.699Z,11.20
2019-04-04T15:50:44.433Z,11.20
2019-04-04T15:53:16.105Z,11.10
2019-04-04T15:55:47.840Z,11.00
2019-04-04T15:58:19.433Z,10.90
2019-04-04T16:00:51.182Z,10.80
2019-04-04T16:03:22.747Z,10.80
2019-04-04T16:05:54.621Z,10.80
2019-04-04T16:08:26.223Z,10.80
2019-04-04T16:10:59.707Z,10.70
2019-04-04T16:13:31.228Z,10.50
2019-04-04T16:16:02.336Z,10.40
2019-04-04T16:18:33.897Z,10.30
2019-04-04T16:21:05.388Z,10.30
2019-04-04T16:23:37.465Z,10.20
2019-04-04T16:26:09.330Z,10.10
2019-04-04T16:28:40.346Z,10.10
2019-04-04T16:31:12.724Z,10.10
2019-04-04T16:33:44.323Z,10.00
2019-04-04T16:36:15.349Z,10.00
2019-04-04T16:38:46.632Z,10.00
2019-04-04T16:41:18.906Z,10.00
2019-04-04T16:43:50.530Z,9.90
2019-04-04T16:46:23.559Z,9.90
2019-04-04T16:48:55.186Z,9.90
2019-04-04T16:51:26.693Z,9.90
2019-04-04T16:53:58.265Z,9.80
2019-04-04T16:56:29.856Z,9.80
2019-04-04T16:59:01.502Z,9.80
2019-04-04T17:01:33.361Z,9.70
2019-04-04T17:04:04.921Z,9.60
2019-04-04T17:06:36.360Z,9.50
2019-04-04T17:09:09.306Z,9.40
2019-04-04T17:11:40.662Z,9.30
2019-04-04T17:14:11.720Z,9.30
2019-04-04T17:16:43.250Z,9.20
2019-04-04T17:19:14.583Z,9.20
2019-04-04T17:21:45.836Z,9.20
2019-04-04T17:24:17.839Z,9.20
2019-04-04T17:26:49.820Z,9.10
2019-04-04T17:29:21.452Z,9.10
2019-04-04T17:31:52.981Z,9.10
2019-04-04T17:34:25.065Z,9.10
2019-04-04T17:36:56.548Z,9.10
2019-04-04T17:39:28.262Z,9.10
2019-04-04T17:42:00.735Z,9.10
2019-04-04T17:44:32.954Z,9.20
2019-04-04T17:47:04.423Z,9.20
2019-04-04T17:49:36.937Z,9.20
2019-04-04T17:52:08.331Z,9.10
2019-04-04T17:54:40.650Z,9.20
2019-04-04T17:57:11.913Z,9.10
2019-04-04T17:59:43.236Z,9.10
2019-04-04T18:02:14.569Z,9.10
2019-04-04T18:04:48.467Z,9.10
2019-04-04T18:07:19.918Z,9.10
2019-04-04T18:09:52.473Z,9.10
2019-04-04T18:12:23.711Z,9.10
2019-04-04T18:14:56.705Z,9.10
2019-04-04T18:17:27.894Z,9.10
2019-04-04T18:19:59.289Z,9.00
2019-04-04T18:22:30.904Z,8.90
2019-04-04T18:25:02.678Z,8.90
2019-04-04T18:27:33.671Z,8.80
2019-04-04T18:30:07.574Z,8.90
2019-04-04T18:32:39.508Z,8.80
2019-04-04T18:35:11.796Z,8.70
2019-04-04T18:37:43.155Z,8.70
2019-04-04T18:40:14.657Z,8.70
2019-04-04T18:42:53.264Z,8.70
2019-04-04T18:45:20.140Z,8.70
2019-04-04T18:47:51.150Z,8.70
2019-04-04T18:50:23.010Z,8.60
2019-04-04T18:52:54.977Z,8.60
2019-04-04T18:55:27.285Z,8.60
2019-04-04T18:57:59.404Z,8.60
2019-04-04T19:00:31.761Z,8.60
2019-04-04T19:03:03.329Z,8.60
2019-04-04T19:05:34.666Z,8.60
2019-04-04T19:08:07.109Z,8.60
2019-04-04T19:10:39.232Z,8.60
2019-04-04T19:13:11.031Z,8.50
2019-04-04T19:15:42.319Z,8.60
2019-04-04T19:18:15.165Z,8.50
2019-04-04T19:20:54.078Z,8.50
2019-04-04T19:23:25.882Z,8.50
2019-04-04T19:25:57.811Z,8.50
2019-04-04T19:28:29.753Z,8.50
2019-04-04T19:31:01.691Z,8.50
2019-04-04T19:33:33.487Z,8.50
2019-04-04T19:36:05.437Z,8.60
2019-04-04T19:38:37.106Z,8.60
2019-04-04T19:41:08.849Z,8.50
2019-04-04T19:43:39.952Z,8.60
2019-04-04T19:46:11.672Z,8.50
2019-04-04T19:48:43.289Z,8.50
2019-04-04T19:51:14.568Z,8.50
2019-04-04T19:53:46.164Z,8.50
2019-04-04T19:56:17.738Z,8.50
2019-04-04T19:58:49.638Z,8.50
2019-04-04T20:01:21.556Z,8.50
2019-04-04T20:03:52.785Z,8.40
2019-04-04T20:06:23.803Z,8.40
2019-04-04T20:08:55.117Z,8.40
2019-04-04T20:11:26.863Z,8.40
2019-04-04T20:13:58.770Z,8.40
2019-04-04T20:16:30.295Z,8.40
2019-04-04T20:19:02.144Z,8.40
2019-04-04T20:21:33.722Z,8.40
2019-04-04T20:24:05.529Z,8.40
2019-04-04T20:26:37.182Z,8.40
2019-04-04T20:29:08.509Z,8.40
2019-04-04T20:31:40.014Z,8.40
2019-04-04T20:34:11.861Z,8.40
2019-04-04T20:36:43.644Z,8.40
2019-04-04T20:39:14.712Z,8.40
2019-04-04T20:41:45.718Z,8.40
2019-04-04T20:44:17.324Z,8.30
2019-04-04T20:46:49.438Z,8.30
2019-04-04T20:49:21.086Z,8.30
2019-04-04T20:51:52.739Z,8.20
2019-04-04T20:54:24.791Z,8.20
2019-04-04T20:56:56.536Z,8.20
2019-04-04T20:59:28.453Z,8.20
2019-04-04T21:02:00.032Z,8.20
2019-04-04T21:04:31.701Z,8.20
2019-04-04T21:07:03.067Z,8.20
2019-04-04T21:09:34.060Z,8.20
2019-04-04T21:12:05.705Z,8.30
2019-04-04T21:14:36.968Z,8.30
2019-04-04T21:17:08.258Z,8.40
2019-04-04T21:19:40.176Z,8.40
2019-04-04T21:22:11.773Z,8.50
2019-04-04T21:24:43.382Z,8.40
2019-04-04T21:27:14.675Z,8.40
2019-04-04T21:29:45.980Z,8.40
2019-04-04T21:32:17.347Z,8.40
2019-04-04T21:34:48.686Z,8.40
2019-04-04T21:37:19.972Z,8.50
2019-04-04T21:39:51.706Z,8.50
2019-04-04T21:42:22.734Z,8.50
2019-04-04T21:44:54.619Z,8.50
2019-04-04T21:47:26.232Z,8.50
2019-04-04T21:49:58.736Z,8.50
2019-04-04T21:52:30.720Z,8.50
2019-04-04T21:55:02.264Z,8.50
2019-04-04T21:57:34.051Z,8.50
2019-04-04T22:00:08.268Z,8.50
2019-04-04T22:02:41.278Z,8.50
2019-04-04T22:05:12.793Z,8.50
2019-04-04T22:07:44.095Z,8.50
2019-04-04T22:10:16.102Z,8.60
2019-04-04T22:12:48.006Z,8.50
2019-04-04T22:15:19.559Z,8.50
2019-04-04T22:17:51.337Z,8.60
2019-04-04T22:20:23.098Z,8.50
2019-04-04T22:22:54.767Z,8.50
2019-04-04T22:25:26.072Z,8.50
2019-04-04T22:27:57.665Z,8.50
2019-04-04T22:30:30.255Z,8.50
2019-04-04T22:33:02.043Z,8.50
2019-04-04T22:35:33.619Z,8.60
2019-04-04T22:38:05.513Z,8.60
2019-04-04T22:40:36.856Z,8.60
2019-04-04T22:43:08.558Z,8.70
2019-04-04T22:45:39.854Z,8.60
2019-04-04T22:48:11.108Z,8.60
2019-04-04T22:50:42.718Z,8.60
2019-04-04T22:53:14.010Z,8.70
2019-04-04T22:55:45.652Z,8.70
2019-04-04T22:58:27.628Z,8.70
2019-04-04T23:00:50.764Z,8.70
2019-04-04T23:03:23.360Z,8.70
2019-04-04T23:05:54.732Z,8.80
2019-04-04T23:08:26.396Z,8.80
2019-04-04T23:10:58.003Z,8.80
2019-04-04T23:13:29.649Z,8.80
2019-04-04T23:16:01.117Z,8.80
2019-04-04T23:18:34.287Z,8.90
2019-04-04T23:21:05.870Z,8.90
2019-04-04T23:23:37.765Z,8.90
2019-04-04T23:26:08.756Z,8.90
2019-04-04T23:28:39.768Z,8.90
2019-04-04T23:31:11.289Z,8.90
2019-04-04T23:33:42.407Z,8.90
2019-04-04T23:36:14.283Z,8.90
2019-04-04T23:38:45.543Z,9.00
2019-04-04T23:41:16.533Z,8.90
2019-04-04T23:43:49.537Z,8.90
2019-04-04T23:46:21.066Z,8.90
2019-04-04T23:48:52.351Z,8.90
2019-04-04T23:51:24.020Z,8.90
2019-04-04T23:53:56.345Z,8.90
2019-04-04T23:56:27.653Z,8.90
2019-04-04T23:58:59.241Z,8.80
